Yeoman, Indiana
Current Conditions -  °F | °C
As of 11:55 AM on Thursday 30 Oct 2014 (Local Time) from KMCX Reporting Station
Clear Clear  
Wind Chill: 48°   Ceiling: Unl
Heat Index: 48°   Visibility: 10mi
Dew Point: 34°   Wind: 3mph
Humidity: 59%   Direction: 170°S
Pressure: 30.15"   Gusts: NA
Location:  40.67°N, 86.72°W
Report Text: KMCX 301555Z AUTO 17003KT 10SM CLR 09/01 A3015 RMK AO2 T00870010
Loading
Personal Weather Stations






























Interactive Weather Map
Tropical Storm Tracking
New forecast layout! Learn more

10-Day Weather Forecast

Advertisements
Track Severe Weather on mobile